MT WASHINGTON (MTW)

Elevation: 920' · LOS ANGELES R basin · Operator: Los Angeles County Fire Dept

Query executed Wednesday at 17:11:57   clock

Provisional data, subject to change.
Select a sensor type for a plot of data.

Earlier

Date   /   Time   RAIN     TEMP     REL HUM     BAR PRE     FUEL MS     FUEL TP     WIND SP     WIND DR     PEAK WS     PEAK WD     SOLAR R     BAT VOL    
(PDT)INCHES   DEG F   %   INCHES   %   DEG F   MPH   DEG   MPH   DEG   W/M^2   VOLTS  
07/22/2014 18:00 5.06 77 39 -- 8 77 -- -- -- -- 21.00 12.6
07/22/2014 19:00 5.06 74 47 -- 8 73 -- -- -- -- 12.00 12.5
07/22/2014 20:00 5.06 72 54 -- 9 71 -- -- -- -- 1.00 12.5
07/22/2014 21:00 5.06 70 59 -- 9 69 -- -- -- -- 0.00 12.5
07/22/2014 22:00 5.06 69 63 -- 10 67 -- -- -- -- 0.00 12.5
07/22/2014 23:00 5.06 70 61 -- 10 67 -- -- -- -- 0.00 12.5
07/23/2014 00:00 5.06 68 67 -- 11 66 -- -- -- -- 0.00 12.4
07/23/2014 01:00 5.06 66 71 -- 11 64 -- -- -- -- 0.00 12.4
07/23/2014 02:00 5.06 71 57 -- 11 65 -- -- -- -- 0.00 12.4
07/23/2014 03:00 5.06 70 57 -- 11 66 -- -- -- -- 0.00 12.4
07/23/2014 04:00 5.06 67 66 -- 12 65 -- -- -- -- 0.00 12.3
07/23/2014 05:00 5.06 67 62 -- 12 65 -- -- -- -- 0.00 12.3
07/23/2014 06:00 5.06 69 59 -- 12 65 -- -- -- -- 20.00 12.4
07/23/2014 07:00 5.06 78 45 -- 11 71 -- -- -- -- 173.00 13.2
07/23/2014 08:00 5.06 82 35 -- 11 81 -- -- -- -- 409.00 13.4
07/23/2014 09:00 5.06 85 32 -- 10 96 -- -- -- -- 590.00 13.4
07/23/2014 10:00 5.06 88 29 -- 9 102 -- -- -- -- 743.00 13.4
07/23/2014 11:00 5.06 92 26 -- 8 106 -- -- -- -- 853.00 13.4
07/23/2014 12:00 5.06 93 29 -- 7 108 -- -- -- -- 907.00 13.4
07/23/2014 13:00 5.06 91 24 -- 7 106 -- -- -- -- 909.00 13.4
07/23/2014 14:00 5.06 91 21 -- 6 101 -- -- -- -- 847.00 13.4
07/23/2014 15:00 5.06 88 28 -- 6 95 -- -- -- -- 631.00 13.4
07/23/2014 16:00 5.06 86 28 -- 6 90 -- -- -- -- 413.00 12.7
07/23/2014 17:00 -- -- -- -- -- -- -- -- -- -- -- --

Later | Latest

Warning! This data is preliminary and subject to revision.

Download Data Now Download Data Now | Show MTW Map | 24 Hours MTW Data | Plot all MTW Sensors | Daily MTW Data | MTW Info